Terminal Aerodrome Forecast
Issued by NWS Louisville, KY

Home | Current Version | Previous Version | Text Only | Print | Product List | Glossary On
Versions: 1 2 3 4 5 6 7 8 9 10 11 12 13 14 15 16 17 18
000
FTUS43 KLMK 201700
TAFSDF
TAF
KSDF 201726Z 2018/2124 04004KT P6SM FEW150 BKN250
     FM202130 02009KT P6SM VCSH SCT040 BKN050
     FM210500 35006KT P6SM VCSH BKN015
     FM211600 33008KT P6SM BKN021
     FM212000 34008KT P6SM BKN035=

USA.gov is the U.S. government's official web portal to all federal, state and local government web resources and services.